34U weather

Yuba Airport
Elk Rapids, Michigan, United States

Public forecast

Using degrees Fahrenheit for public forecast. Weather courtesy of forecast.io.

Closest aviation weather report (METAR) to Yuba Airport

Closest report is Cherry Capital Airport, 8.7 nm (16.1 km) SW. Retrieved 2019/10/24 02:53 UTC (41 minutes ago):

KTVC 240253Z AUTO 21004KT 10SM BKN060 OVC080 07/03 A2998 RMK AO2 SLP155 T00670033 53019

Closest aviation forecast (TAF) to Yuba Airport

Closest forecast is Cherry Capital Airport, 8.7 nm (16.1 km) SW. Retrieved 2019-10-24 00:22 UTC (3 hours ago):

TAF KTVC 232320Z 2400/2424 23006KT P6SM VCSH BKN060 FM240400 VRB04KT 6SM -SHRA OVC030 FM240900 30006KT P6SM VCSH OVC035 FM241200 30009KT P6SM BKN050 FM241400 29011G20KT P6SM OVC030 FM241900 28011KT P6SM OVC035